createdAt,value
2018-01-18T00:00:42.380Z,3.92
2018-01-18T00:01:42.397Z,3.94
2018-01-18T00:02:42.419Z,3.94
2018-01-18T00:03:42.437Z,3.92
2018-01-18T00:04:42.448Z,3.93
2018-01-18T00:05:42.464Z,3.89
2018-01-18T00:06:42.483Z,3.92
2018-01-18T00:07:42.553Z,3.96
2018-01-18T00:08:42.524Z,3.93
2018-01-18T00:09:42.539Z,3.93
2018-01-18T00:10:42.548Z,3.93
2018-01-18T00:11:42.571Z,3.93
2018-01-18T00:12:42.588Z,3.96
2018-01-18T00:13:42.603Z,4.03
2018-01-18T00:14:42.615Z,4.02
2018-01-18T00:15:42.638Z,4.02
2018-01-18T00:16:42.649Z,3.96
2018-01-18T00:17:42.673Z,3.92
2018-01-18T00:18:42.684Z,3.89
2018-01-18T00:19:42.706Z,4.00
2018-01-18T00:20:42.717Z,3.89
2018-01-18T00:21:42.733Z,3.92
2018-01-18T00:22:42.749Z,3.93
2018-01-18T00:23:42.772Z,3.90
2018-01-18T00:24:42.784Z,3.94
2018-01-18T00:25:42.810Z,3.90
2018-01-18T00:26:42.818Z,3.90
2018-01-18T00:27:42.835Z,3.86
2018-01-18T00:28:42.852Z,3.89
2018-01-18T00:29:42.868Z,3.94
2018-01-18T00:30:42.890Z,3.94
2018-01-18T00:31:42.902Z,3.96
2018-01-18T00:32:42.926Z,3.90
2018-01-18T00:33:42.936Z,3.93
2018-01-18T00:34:42.962Z,3.86
2018-01-18T00:35:42.970Z,3.92
2018-01-18T00:36:42.993Z,4.02
2018-01-18T00:37:43.004Z,4.00
2018-01-18T00:38:43.026Z,3.96
2018-01-18T00:39:43.039Z,4.04
2018-01-18T00:40:43.062Z,3.99
2018-01-18T00:41:43.071Z,4.04
2018-01-18T00:42:43.094Z,4.03
2018-01-18T00:43:43.105Z,4.04
2018-01-18T00:44:43.128Z,3.93
2018-01-18T00:45:43.145Z,4.02
2018-01-18T00:46:43.157Z,3.97
2018-01-18T00:47:43.174Z,4.02
2018-01-18T00:48:43.196Z,3.97
2018-01-18T00:49:43.213Z,4.02
2018-01-18T00:50:43.224Z,4.12
2018-01-18T00:51:43.240Z,4.07
2018-01-18T00:52:43.267Z,4.08
2018-01-18T00:53:43.281Z,4.10
2018-01-18T00:54:43.293Z,4.15
2018-01-18T00:55:43.316Z,4.08
2018-01-18T00:56:43.326Z,4.07
2018-01-18T00:57:43.350Z,4.07
2018-01-18T00:58:43.360Z,4.10
2018-01-18T00:59:43.389Z,4.10
2018-01-18T01:00:43.395Z,4.17
2018-01-18T01:01:43.413Z,4.17
2018-01-18T01:02:43.434Z,4.12
2018-01-18T01:03:43.445Z,4.10
2018-01-18T01:04:43.470Z,4.18
2018-01-18T01:05:43.480Z,4.21
2018-01-18T01:06:43.505Z,4.15
2018-01-18T01:07:43.520Z,4.18
2018-01-18T01:08:43.543Z,4.20
2018-01-18T01:09:43.559Z,4.21
2018-01-18T01:10:43.570Z,4.28
2018-01-18T01:11:43.587Z,4.24
2018-01-18T01:12:43.611Z,4.32
2018-01-18T01:13:43.627Z,4.32
2018-01-18T01:14:43.638Z,4.36
2018-01-18T01:15:43.657Z,4.33
2018-01-18T01:16:43.679Z,4.42
2018-01-18T01:17:43.698Z,4.40
2018-01-18T01:18:43.712Z,4.44
2018-01-18T01:19:43.730Z,4.44
2018-01-18T01:20:43.742Z,4.44
2018-01-18T01:21:43.764Z,4.42
2018-01-18T01:22:43.775Z,4.39
2018-01-18T01:23:43.797Z,4.53
2018-01-18T01:24:43.810Z,4.48
2018-01-18T01:25:43.825Z,4.51
2018-01-18T01:26:43.849Z,4.51
2018-01-18T01:27:43.866Z,4.50
2018-01-18T01:28:43.879Z,4.57
2018-01-18T01:29:43.894Z,4.58
2018-01-18T01:30:43.918Z,4.53
2018-01-18T01:31:43.933Z,4.47
2018-01-18T01:32:43.948Z,4.57
2018-01-18T01:33:43.969Z,4.57
2018-01-18T01:34:43.980Z,4.57
2018-01-18T01:35:43.997Z,4.58
2018-01-18T01:36:44.019Z,4.57
2018-01-18T01:37:44.038Z,4.61
2018-01-18T01:38:44.049Z,4.60
2018-01-18T01:39:44.067Z,4.57
2018-01-18T01:40:44.089Z,4.58
2018-01-18T01:41:44.106Z,4.56
2018-01-18T01:42:44.117Z,4.57
2018-01-18T01:43:44.135Z,4.58
2018-01-18T01:44:44.158Z,4.56
2018-01-18T01:45:44.178Z,4.56
2018-01-18T01:46:44.186Z,4.57
2018-01-18T01:47:44.205Z,4.60
2018-01-18T01:48:44.230Z,4.57
2018-01-18T01:49:44.242Z,4.51
2018-01-18T01:50:44.255Z,4.48
2018-01-18T01:51:44.272Z,4.48
2018-01-18T01:52:44.296Z,4.48
2018-01-18T01:53:44.313Z,4.53
2018-01-18T01:54:44.324Z,4.56
2018-01-18T01:55:44.342Z,4.48
2018-01-18T01:56:44.365Z,4.54
2018-01-18T01:57:44.376Z,4.50
2018-01-18T01:58:44.398Z,4.51
2018-01-18T01:59:44.411Z,4.53
2018-01-18T02:00:44.434Z,4.56
2018-01-18T02:01:44.445Z,4.54
2018-01-18T02:02:44.469Z,4.50
2018-01-18T02:03:44.481Z,4.48
2018-01-18T02:04:44.510Z,4.57
2018-01-18T02:05:44.515Z,4.54
2018-01-18T02:06:44.538Z,4.56
2018-01-18T02:07:44.550Z,4.56
2018-01-18T02:08:44.573Z,4.46
2018-01-18T02:09:44.584Z,4.50
2018-01-18T02:10:44.607Z,4.54
2018-01-18T02:11:44.620Z,4.53
2018-01-18T02:12:44.642Z,4.51
2018-01-18T02:13:44.665Z,4.54
2018-01-18T02:14:44.671Z,4.53
2018-01-18T02:15:44.693Z,4.51
2018-01-18T02:16:44.706Z,4.40
2018-01-18T02:17:44.729Z,4.53
2018-01-18T02:18:44.741Z,4.50
2018-01-18T02:19:44.764Z,4.58
2018-01-18T02:20:44.776Z,4.44
2018-01-18T02:21:44.798Z,4.44
2018-01-18T02:22:44.810Z,4.48
2018-01-18T02:23:44.834Z,4.47
2018-01-18T02:24:44.846Z,4.48
2018-01-18T02:25:44.868Z,4.46
2018-01-18T02:26:44.880Z,4.46
2018-01-18T02:27:44.904Z,4.44
2018-01-18T02:28:44.916Z,4.44
2018-01-18T02:29:44.938Z,4.40
2018-01-18T02:30:44.950Z,4.39
2018-01-18T02:31:44.968Z,4.40
2018-01-18T02:32:44.991Z,4.39
2018-01-18T02:33:45.008Z,4.48
2018-01-18T02:34:45.020Z,4.44
2018-01-18T02:35:45.038Z,4.39
2018-01-18T02:36:45.061Z,4.40
2018-01-18T02:37:45.077Z,4.46
2018-01-18T02:38:45.089Z,4.46
2018-01-18T02:39:45.107Z,4.44
2018-01-18T02:40:45.135Z,4.51
2018-01-18T02:41:45.146Z,4.42
2018-01-18T02:42:45.159Z,4.47
2018-01-18T02:43:45.176Z,4.36
2018-01-18T02:44:45.199Z,4.38
2018-01-18T02:45:45.216Z,4.50
2018-01-18T02:46:45.229Z,4.42
2018-01-18T02:47:45.309Z,4.42
2018-01-18T02:48:45.265Z,4.44
2018-01-18T02:49:45.285Z,4.50
2018-01-18T02:50:45.297Z,4.53
2018-01-18T02:51:45.321Z,4.51
2018-01-18T02:52:45.334Z,4.51
2018-01-18T02:53:45.349Z,4.50
2018-01-18T02:54:45.373Z,4.51
2018-01-18T02:55:45.390Z,4.50
2018-01-18T02:56:45.414Z,4.47
2018-01-18T02:57:45.420Z,4.51
2018-01-18T02:58:45.436Z,4.51
2018-01-18T02:59:45.461Z,4.50
2018-01-18T03:00:45.471Z,4.53
2018-01-18T03:01:45.488Z,4.50
2018-01-18T03:02:45.511Z,4.53
2018-01-18T03:03:45.524Z,4.58
2018-01-18T03:04:45.546Z,4.48
2018-01-18T03:05:45.555Z,4.51
2018-01-18T03:06:45.581Z,4.51
2018-01-18T03:07:45.592Z,4.58
2018-01-18T03:08:45.615Z,4.51
2018-01-18T03:09:45.625Z,4.53
2018-01-18T03:10:45.650Z,4.57
2018-01-18T03:11:45.661Z,4.53
2018-01-18T03:12:45.679Z,4.50
2018-01-18T03:13:45.696Z,4.50
2018-01-18T03:14:45.712Z,4.57
2018-01-18T03:15:45.735Z,4.61
2018-01-18T03:16:45.754Z,4.60
2018-01-18T03:17:45.769Z,4.60
2018-01-18T03:18:45.782Z,4.57
2018-01-18T03:19:45.799Z,4.57
2018-01-18T03:20:45.823Z,4.72
2018-01-18T03:21:45.840Z,4.68
2018-01-18T03:22:45.851Z,4.71
2018-01-18T03:23:45.869Z,4.69
2018-01-18T03:24:45.892Z,4.71
2018-01-18T03:25:45.909Z,4.69
2018-01-18T03:26:45.926Z,4.74
2018-01-18T03:27:45.944Z,4.76
2018-01-18T03:28:45.962Z,4.75
2018-01-18T03:29:45.973Z,4.78
2018-01-18T03:30:45.997Z,4.74
2018-01-18T03:31:46.013Z,4.79
2018-01-18T03:32:46.025Z,4.76
2018-01-18T03:33:46.042Z,4.83
2018-01-18T03:34:46.066Z,4.83
2018-01-18T03:35:46.084Z,4.87
2018-01-18T03:36:46.095Z,4.84
2018-01-18T03:37:46.112Z,4.78
2018-01-18T03:38:46.135Z,4.90
2018-01-18T03:39:46.152Z,4.87
2018-01-18T03:40:46.164Z,4.85
2018-01-18T03:41:46.181Z,4.90
2018-01-18T03:42:46.199Z,4.88
2018-01-18T03:43:46.223Z,4.97
2018-01-18T03:44:46.240Z,4.92
2018-01-18T03:45:46.257Z,4.94
2018-01-18T03:46:46.268Z,4.95
2018-01-18T03:47:46.291Z,5.03
2018-01-18T03:48:46.304Z,5.03
2018-01-18T03:49:46.325Z,4.91
2018-01-18T03:50:46.340Z,5.00
2018-01-18T03:51:46.359Z,4.94
2018-01-18T03:52:46.380Z,4.95
2018-01-18T03:53:46.396Z,4.98
2018-01-18T03:54:46.408Z,4.97
2018-01-18T03:55:46.425Z,4.94
2018-01-18T03:56:46.450Z,4.90
2018-01-18T03:57:46.461Z,4.92
2018-01-18T03:58:46.484Z,4.90
2018-01-18T03:59:46.502Z,4.87
2018-01-18T04:00:46.519Z,4.87
2018-01-18T04:01:46.531Z,4.87
2018-01-18T04:02:46.548Z,4.87
2018-01-18T04:03:46.571Z,4.85
2018-01-18T04:04:46.584Z,4.85
2018-01-18T04:05:46.606Z,4.90
2018-01-18T04:06:46.617Z,4.88
2018-01-18T04:07:46.640Z,4.79
2018-01-18T04:08:46.653Z,4.87
2018-01-18T04:09:46.675Z,4.84
2018-01-18T04:10:46.689Z,4.83
2018-01-18T04:11:46.711Z,4.76
2018-01-18T04:12:46.723Z,4.74
2018-01-18T04:13:46.749Z,4.72
2018-01-18T04:14:46.762Z,4.76
2018-01-18T04:15:46.775Z,4.74
2018-01-18T04:16:46.792Z,4.72
2018-01-18T04:17:46.810Z,4.66
2018-01-18T04:18:46.827Z,4.71
2018-01-18T04:19:46.887Z,4.69
2018-01-18T04:20:46.905Z,4.72
2018-01-18T04:21:46.880Z,4.71
2018-01-18T04:22:46.903Z,4.65
2018-01-18T04:23:46.916Z,4.64
2018-01-18T04:24:46.938Z,4.58
2018-01-18T04:25:46.948Z,4.51
2018-01-18T04:26:46.972Z,4.54
2018-01-18T04:27:46.984Z,4.48
2018-01-18T04:28:47.008Z,4.53
2018-01-18T04:29:47.024Z,4.48
2018-01-18T04:30:47.043Z,4.40
2018-01-18T04:31:47.059Z,4.39
2018-01-18T04:32:47.076Z,4.39
2018-01-18T04:33:47.088Z,4.42
2018-01-18T04:34:47.111Z,4.35
2018-01-18T04:35:47.130Z,4.39
2018-01-18T04:36:47.141Z,4.39
2018-01-18T04:37:47.164Z,4.28
2018-01-18T04:38:47.177Z,4.26
2018-01-18T04:39:47.193Z,4.28
2018-01-18T04:40:47.216Z,4.24
2018-01-18T04:41:47.233Z,4.20
2018-01-18T04:42:47.244Z,4.20
2018-01-18T04:43:47.263Z,4.17
2018-01-18T04:44:47.285Z,4.15
2018-01-18T04:45:47.295Z,4.14
2018-01-18T04:46:47.319Z,4.14
2018-01-18T04:47:47.337Z,4.10
2018-01-18T04:48:47.354Z,4.12
2018-01-18T04:49:47.365Z,4.10
2018-01-18T04:50:47.382Z,4.10
2018-01-18T04:51:47.405Z,4.10
2018-01-18T04:52:47.417Z,4.02
2018-01-18T04:53:47.439Z,3.99
2018-01-18T04:54:47.452Z,3.99
2018-01-18T04:55:47.473Z,4.08
2018-01-18T04:56:47.485Z,3.99
2018-01-18T04:57:47.507Z,3.96
2018-01-18T04:58:47.520Z,4.10
2018-01-18T04:59:47.541Z,3.90
2018-01-18T05:00:47.554Z,3.93
2018-01-18T05:01:47.575Z,3.92
2018-01-18T05:02:47.587Z,3.99
2018-01-18T05:03:47.611Z,4.02
2018-01-18T05:04:47.623Z,3.90
2018-01-18T05:05:47.644Z,3.90
2018-01-18T05:06:47.655Z,3.90
2018-01-18T05:07:47.680Z,3.85
2018-01-18T05:08:47.689Z,3.89
2018-01-18T05:09:47.712Z,3.94
2018-01-18T05:10:47.723Z,3.92
2018-01-18T05:11:47.741Z,3.92
2018-01-18T05:12:47.766Z,3.85
2018-01-18T05:13:47.778Z,3.84
2018-01-18T05:14:47.793Z,3.78
2018-01-18T05:15:47.808Z,3.86
2018-01-18T05:16:47.830Z,3.84
2018-01-18T05:17:47.846Z,3.79
2018-01-18T05:18:47.859Z,3.84
2018-01-18T05:19:47.877Z,3.72
2018-01-18T05:20:47.897Z,3.74
2018-01-18T05:21:47.965Z,3.81
2018-01-18T05:22:47.927Z,3.66
2018-01-18T05:23:47.942Z,3.67
2018-01-18T05:24:47.967Z,3.71
2018-01-18T05:25:47.982Z,3.67
2018-01-18T05:26:47.993Z,3.64
2018-01-18T05:27:48.011Z,3.66
2018-01-18T05:28:48.033Z,3.71
2018-01-18T05:29:48.049Z,3.53
2018-01-18T05:30:48.062Z,3.64
2018-01-18T05:31:48.088Z,3.60
2018-01-18T05:32:48.101Z,3.60
2018-01-18T05:33:48.116Z,3.53
2018-01-18T05:34:48.129Z,3.63
2018-01-18T05:35:48.144Z,3.58
2018-01-18T05:36:48.167Z,3.57
2018-01-18T05:37:48.188Z,3.61
2018-01-18T05:38:48.194Z,3.54
2018-01-18T05:39:48.226Z,3.56
2018-01-18T05:40:48.236Z,3.54
2018-01-18T05:41:48.244Z,3.57
2018-01-18T05:42:48.267Z,3.57
2018-01-18T05:43:48.278Z,3.53
2018-01-18T05:44:48.300Z,3.57
2018-01-18T05:45:48.310Z,3.51
2018-01-18T05:46:48.332Z,3.51
2018-01-18T05:47:48.345Z,3.57
2018-01-18T05:48:48.366Z,3.54
2018-01-18T05:49:48.382Z,3.54
2018-01-18T05:50:48.400Z,3.51
2018-01-18T05:51:48.412Z,3.54
2018-01-18T05:52:48.434Z,3.54
2018-01-18T05:53:48.443Z,3.57
2018-01-18T05:54:48.466Z,3.61
2018-01-18T05:55:48.477Z,3.61
2018-01-18T05:56:48.501Z,3.60
2018-01-18T05:57:48.516Z,3.57
2018-01-18T05:58:48.526Z,3.57
2018-01-18T05:59:48.543Z,3.60
2018-01-18T06:00:48.575Z,3.66
2018-01-18T06:01:48.581Z,3.69
2018-01-18T06:02:48.594Z,3.75
2018-01-18T06:03:48.610Z,3.69
2018-01-18T06:04:48.632Z,3.76
2018-01-18T06:05:48.648Z,3.74
2018-01-18T06:06:48.661Z,3.71
2018-01-18T06:07:48.684Z,3.75
2018-01-18T06:08:48.693Z,3.72
2018-01-18T06:09:48.714Z,3.86
2018-01-18T06:10:48.725Z,3.82
2018-01-18T06:11:48.747Z,3.82
2018-01-18T06:12:48.758Z,3.85
2018-01-18T06:13:48.775Z,3.93
2018-01-18T06:14:48.797Z,3.94
2018-01-18T06:15:48.814Z,3.93
2018-01-18T06:16:48.825Z,3.92
2018-01-18T06:17:48.840Z,3.92
2018-01-18T06:18:48.869Z,3.92
2018-01-18T06:19:48.880Z,3.85
2018-01-18T06:20:48.891Z,3.92
2018-01-18T06:21:48.914Z,3.99
2018-01-18T06:22:48.925Z,4.04
2018-01-18T06:23:48.942Z,4.04
2018-01-18T06:24:48.963Z,4.02
2018-01-18T06:25:48.979Z,4.00
2018-01-18T06:26:48.994Z,4.07
2018-01-18T06:27:49.014Z,4.02
2018-01-18T06:28:49.030Z,4.04
2018-01-18T06:29:49.039Z,4.04
2018-01-18T06:30:49.062Z,4.00
2018-01-18T06:31:49.074Z,4.04
2018-01-18T06:32:49.096Z,4.08
2018-01-18T06:33:49.108Z,4.07
2018-01-18T06:34:49.130Z,4.07
2018-01-18T06:35:49.140Z,4.18
2018-01-18T06:36:49.163Z,4.17
2018-01-18T06:37:49.181Z,4.21
2018-01-18T06:38:49.191Z,4.15
2018-01-18T06:39:49.262Z,4.18
2018-01-18T06:40:49.228Z,4.15
2018-01-18T06:41:49.246Z,4.17
2018-01-18T06:42:49.257Z,4.30
2018-01-18T06:43:49.274Z,4.40
2018-01-18T06:44:49.297Z,4.36
2018-01-18T06:45:49.313Z,4.35
2018-01-18T06:46:49.325Z,4.36
2018-01-18T06:47:49.347Z,4.32
2018-01-18T06:48:49.359Z,4.46
2018-01-18T06:49:49.380Z,4.39
2018-01-18T06:50:49.392Z,4.36
2018-01-18T06:51:49.414Z,4.35
2018-01-18T06:52:49.425Z,4.40
2018-01-18T06:53:49.442Z,4.47
2018-01-18T06:54:49.464Z,4.51
2018-01-18T06:55:49.477Z,4.53
2018-01-18T06:56:49.499Z,4.57
2018-01-18T06:57:49.510Z,4.57
2018-01-18T06:58:49.533Z,4.69
2018-01-18T06:59:49.543Z,4.68
2018-01-18T07:00:49.566Z,4.76
2018-01-18T07:01:49.581Z,4.76
2018-01-18T07:02:49.599Z,4.84
2018-01-18T07:03:49.612Z,4.87
2018-01-18T07:04:49.636Z,4.95
2018-01-18T07:05:49.645Z,4.98
2018-01-18T07:06:49.668Z,5.00
2018-01-18T07:07:49.679Z,5.12
2018-01-18T07:08:49.703Z,5.18
2018-01-18T07:09:49.720Z,5.21
2018-01-18T07:10:49.730Z,5.28
2018-01-18T07:11:49.753Z,5.27
2018-01-18T07:12:49.771Z,5.37
2018-01-18T07:13:49.788Z,5.41
2018-01-18T07:14:49.805Z,5.49
2018-01-18T07:15:49.822Z,5.57
2018-01-18T07:16:49.838Z,5.49
2018-01-18T07:17:49.857Z,5.57
2018-01-18T07:18:49.869Z,5.67
2018-01-18T07:19:49.887Z,5.72
2018-01-18T07:20:49.909Z,5.75
2018-01-18T07:21:49.926Z,5.78
2018-01-18T07:22:49.937Z,5.85
2018-01-18T07:23:49.955Z,5.91
2018-01-18T07:24:49.979Z,5.95
2018-01-18T07:25:49.989Z,6.00
2018-01-18T07:26:50.013Z,6.03
2018-01-18T07:27:50.030Z,6.10
2018-01-18T07:28:50.052Z,6.15
2018-01-18T07:29:50.060Z,6.14
2018-01-18T07:30:50.077Z,6.34
2018-01-18T07:31:50.102Z,6.40
2018-01-18T07:32:50.113Z,6.40
2018-01-18T07:33:50.142Z,6.43
2018-01-18T07:34:50.148Z,6.39
2018-01-18T07:35:50.167Z,6.46
2018-01-18T07:36:50.195Z,6.43
2018-01-18T07:37:50.207Z,6.51
2018-01-18T07:38:50.220Z,6.55
2018-01-18T07:39:50.237Z,6.65
2018-01-18T07:40:50.261Z,6.65
2018-01-18T07:41:50.272Z,6.68
2018-01-18T07:42:50.290Z,6.73
2018-01-18T07:43:50.313Z,6.73
2018-01-18T07:44:50.331Z,6.80
2018-01-18T07:45:50.350Z,6.83
2018-01-18T07:46:50.362Z,6.78
2018-01-18T07:47:50.389Z,6.80
2018-01-18T07:48:50.399Z,6.85
2018-01-18T07:49:50.422Z,6.82
2018-01-18T07:50:50.435Z,6.90
2018-01-18T07:51:50.458Z,7.00
2018-01-18T07:52:50.471Z,6.93
2018-01-18T07:53:50.495Z,6.95
2018-01-18T07:54:50.508Z,6.98
2018-01-18T07:55:50.532Z,7.12
2018-01-18T07:56:50.544Z,7.04
2018-01-18T07:57:50.562Z,7.01
2018-01-18T07:58:50.632Z,7.05
2018-01-18T07:59:50.598Z,7.08
2018-01-18T08:00:50.617Z,6.98
2018-01-18T08:01:50.634Z,7.11
2018-01-18T08:02:50.653Z,7.01
2018-01-18T08:03:50.675Z,7.03
2018-01-18T08:04:50.696Z,7.13
2018-01-18T08:05:50.714Z,7.11
2018-01-18T08:06:50.726Z,7.34
2018-01-18T08:07:50.746Z,7.47
2018-01-18T08:08:50.773Z,7.45
2018-01-18T08:09:50.787Z,7.59
2018-01-18T08:10:50.800Z,7.54
2018-01-18T08:11:50.819Z,7.68
2018-01-18T08:12:50.843Z,7.70
2018-01-18T08:13:50.861Z,7.70
2018-01-18T08:14:50.874Z,7.82
2018-01-18T08:15:50.900Z,7.89
2018-01-18T08:16:50.918Z,7.95
2018-01-18T08:17:50.937Z,8.06
2018-01-18T08:18:50.958Z,7.99
2018-01-18T08:19:50.974Z,8.09
2018-01-18T08:20:50.990Z,8.14
2018-01-18T08:21:51.005Z,8.17
2018-01-18T08:22:51.029Z,8.17
2018-01-18T08:23:51.048Z,8.13
2018-01-18T08:24:51.061Z,8.22
2018-01-18T08:25:51.084Z,8.25
2018-01-18T08:26:51.105Z,8.35
2018-01-18T08:27:51.124Z,8.39
2018-01-18T08:28:51.139Z,8.36
2018-01-18T08:29:51.156Z,8.29
2018-01-18T08:30:51.180Z,8.44
2018-01-18T08:31:51.202Z,8.50
2018-01-18T08:32:51.219Z,8.62
2018-01-18T08:33:51.232Z,8.61
2018-01-18T08:34:51.251Z,8.65
2018-01-18T08:35:51.283Z,8.64
2018-01-18T08:36:51.290Z,8.60
2018-01-18T08:37:51.314Z,8.72
2018-01-18T08:38:51.331Z,8.76
2018-01-18T08:39:51.356Z,8.79
2018-01-18T08:40:51.370Z,8.82
2018-01-18T08:41:51.397Z,8.87
2018-01-18T08:42:51.406Z,8.90
2018-01-18T08:43:51.431Z,8.97
2018-01-18T08:44:51.450Z,9.00
2018-01-18T08:45:51.463Z,8.98
2018-01-18T08:46:51.522Z,8.95
2018-01-18T08:47:51.503Z,8.97
2018-01-18T08:48:51.528Z,8.94
2018-01-18T08:49:51.547Z,8.86
2018-01-18T08:50:51.560Z,8.92
2018-01-18T08:51:51.586Z,8.79
2018-01-18T08:52:51.606Z,8.79
2018-01-18T08:53:51.619Z,8.77
2018-01-18T08:54:51.645Z,8.76
2018-01-18T08:55:51.659Z,8.77
2018-01-18T08:56:51.684Z,8.69
2018-01-18T08:57:51.699Z,8.69
2018-01-18T08:58:51.724Z,8.76
2018-01-18T08:59:51.737Z,8.77
2018-01-18T09:00:51.763Z,8.79
2018-01-18T09:01:51.775Z,8.98
2018-01-18T09:02:51.798Z,9.05
2018-01-18T09:03:51.816Z,8.95
2018-01-18T09:04:51.836Z,9.08
2018-01-18T09:05:51.860Z,9.00
2018-01-18T09:06:51.874Z,9.09
2018-01-18T09:07:51.896Z,9.03
2018-01-18T09:08:51.921Z,9.03
2018-01-18T09:09:51.933Z,8.87
2018-01-18T09:10:51.961Z,8.94
2018-01-18T09:11:51.973Z,8.97
2018-01-18T09:12:51.999Z,9.01
2018-01-18T09:13:52.012Z,9.03
2018-01-18T09:14:52.039Z,9.03
2018-01-18T09:15:52.053Z,9.17
2018-01-18T09:16:52.077Z,9.19
2018-01-18T09:17:52.098Z,9.23
2018-01-18T09:18:52.110Z,9.16
2018-01-18T09:19:52.138Z,9.08
2018-01-18T09:20:52.153Z,9.09
2018-01-18T09:21:52.175Z,9.12
2018-01-18T09:22:52.195Z,9.29
2018-01-18T09:23:52.215Z,9.67
2018-01-18T09:24:52.230Z,9.64
2018-01-18T09:25:52.254Z,9.59
2018-01-18T09:26:52.268Z,9.59
2018-01-18T09:27:52.290Z,9.63
2018-01-18T09:28:52.315Z,9.62
2018-01-18T09:29:52.334Z,9.52
2018-01-18T09:30:52.350Z,9.37
2018-01-18T09:31:52.369Z,9.42
2018-01-18T09:32:52.395Z,9.38
2018-01-18T09:33:52.407Z,9.45
2018-01-18T09:34:52.437Z,9.50
2018-01-18T09:35:52.448Z,9.41
2018-01-18T09:36:52.476Z,9.47
2018-01-18T09:37:52.488Z,9.48
2018-01-18T09:38:52.515Z,9.55
2018-01-18T09:39:52.530Z,9.45
2018-01-18T09:40:52.555Z,9.48
2018-01-18T09:41:52.574Z,9.57
2018-01-18T09:42:52.591Z,9.71
2018-01-18T09:43:52.610Z,9.78
2018-01-18T09:44:52.637Z,9.88
2018-01-18T09:45:52.655Z,9.81
2018-01-18T09:46:52.670Z,9.88
2018-01-18T09:47:52.691Z,9.96
2018-01-18T09:48:52.717Z,10.73
2018-01-18T09:49:52.731Z,10.87
2018-01-18T09:50:52.757Z,10.39
2018-01-18T09:51:52.778Z,9.92
2018-01-18T09:52:52.835Z,9.88
2018-01-18T09:53:52.815Z,9.70
2018-01-18T09:54:52.839Z,9.57
2018-01-18T09:55:52.861Z,9.47
2018-01-18T09:56:52.875Z,9.35
2018-01-18T09:57:52.902Z,9.26
2018-01-18T09:58:52.916Z,9.21
2018-01-18T09:59:52.945Z,9.04
2018-01-18T10:00:52.959Z,8.97
2018-01-18T10:01:52.984Z,8.94
2018-01-18T10:02:52.999Z,8.95
2018-01-18T10:03:53.032Z,9.01
2018-01-18T10:04:53.042Z,8.94
2018-01-18T10:05:53.067Z,8.89
2018-01-18T10:06:53.081Z,8.87
2018-01-18T10:07:53.102Z,8.85
2018-01-18T10:08:53.130Z,8.90
2018-01-18T10:09:53.147Z,8.89
2018-01-18T10:10:53.164Z,8.86
2018-01-18T10:11:53.183Z,8.77
2018-01-18T10:12:53.209Z,8.82
2018-01-18T10:13:53.223Z,8.76
2018-01-18T10:14:53.250Z,8.83
2018-01-18T10:15:53.265Z,8.80
2018-01-18T10:16:53.290Z,8.71
2018-01-18T10:17:53.304Z,8.74
2018-01-18T10:18:53.329Z,8.69
2018-01-18T10:19:53.344Z,8.62
2018-01-18T10:20:53.369Z,8.62
2018-01-18T10:21:53.384Z,8.60
2018-01-18T10:22:53.409Z,8.60
2018-01-18T10:23:53.423Z,8.58
2018-01-18T10:24:53.448Z,8.53
2018-01-18T10:25:53.462Z,8.54
2018-01-18T10:26:53.487Z,8.49
2018-01-18T10:27:53.502Z,8.34
2018-01-18T10:28:53.529Z,8.39
2018-01-18T10:29:53.548Z,8.35
2018-01-18T10:30:53.561Z,8.28
2018-01-18T10:31:53.585Z,8.24
2018-01-18T10:32:53.607Z,8.16
2018-01-18T10:33:53.625Z,8.16
2018-01-18T10:34:53.640Z,8.16
2018-01-18T10:35:53.659Z,8.11
2018-01-18T10:36:53.685Z,8.13
2018-01-18T10:37:53.704Z,8.03
2018-01-18T10:38:53.718Z,7.83
2018-01-18T10:39:53.739Z,7.77
2018-01-18T10:40:53.764Z,7.63
2018-01-18T10:41:53.782Z,7.58
2018-01-18T10:42:53.797Z,7.54
2018-01-18T10:43:53.816Z,7.34
2018-01-18T10:44:53.841Z,7.30
2018-01-18T10:45:53.860Z,7.16
2018-01-18T10:46:53.874Z,7.12
2018-01-18T10:47:53.893Z,7.11
2018-01-18T10:48:53.919Z,6.90
2018-01-18T10:49:53.938Z,7.01
2018-01-18T10:50:53.951Z,6.83
2018-01-18T10:51:53.970Z,6.85
2018-01-18T10:52:54.002Z,6.86
2018-01-18T10:53:54.019Z,6.72
2018-01-18T10:54:54.029Z,6.73
2018-01-18T10:55:54.047Z,6.82
2018-01-18T10:56:54.072Z,6.67
2018-01-18T10:57:54.089Z,6.75
2018-01-18T10:58:54.328Z,6.76
2018-01-18T10:59:54.152Z,6.76
2018-01-18T11:00:54.148Z,6.73
2018-01-18T11:01:54.166Z,6.73
2018-01-18T11:02:54.180Z,6.62
2018-01-18T11:03:54.204Z,6.60
2018-01-18T11:04:54.217Z,6.61
2018-01-18T11:05:54.240Z,6.62
2018-01-18T11:06:54.254Z,6.62
2018-01-18T11:07:54.278Z,6.54
2018-01-18T11:08:54.291Z,6.55
2018-01-18T11:09:54.315Z,6.49
2018-01-18T11:10:54.345Z,6.52
2018-01-18T11:11:54.353Z,6.49
2018-01-18T11:12:54.366Z,6.52
2018-01-18T11:13:54.389Z,6.49
2018-01-18T11:14:54.403Z,6.61
2018-01-18T11:15:54.430Z,6.55
2018-01-18T11:16:54.440Z,6.46
2018-01-18T11:17:54.457Z,6.49
2018-01-18T11:18:54.500Z,6.57
2018-01-18T11:19:54.495Z,6.52
2018-01-18T11:20:54.520Z,6.49
2018-01-18T11:21:54.534Z,6.47
2018-01-18T11:22:54.556Z,6.43
2018-01-18T11:23:54.569Z,6.46
2018-01-18T11:24:54.594Z,6.54
2018-01-18T11:25:54.612Z,6.60
2018-01-18T11:26:54.626Z,6.43
2018-01-18T11:27:54.652Z,6.49
2018-01-18T11:28:54.667Z,6.54
2018-01-18T11:29:54.684Z,6.58
2018-01-18T11:30:54.703Z,6.54
2018-01-18T11:31:54.722Z,6.55
2018-01-18T11:32:54.735Z,6.54
2018-01-18T11:33:54.752Z,6.62
2018-01-18T11:34:54.778Z,6.64
2018-01-18T11:35:54.799Z,6.61
2018-01-18T11:36:54.809Z,6.65
2018-01-18T11:37:54.826Z,6.72
2018-01-18T11:38:54.850Z,6.67
2018-01-18T11:39:54.869Z,6.86
2018-01-18T11:40:54.881Z,6.73
2018-01-18T11:41:54.899Z,6.85
2018-01-18T11:42:54.924Z,6.73
2018-01-18T11:43:54.939Z,6.82
2018-01-18T11:44:54.956Z,6.83
2018-01-18T11:45:54.974Z,6.83
2018-01-18T11:46:54.991Z,6.78
2018-01-18T11:47:55.010Z,6.85
2018-01-18T11:48:55.035Z,6.70
2018-01-18T11:49:55.047Z,6.78
2018-01-18T11:50:55.073Z,6.76
2018-01-18T11:51:55.090Z,6.73
2018-01-18T11:52:55.103Z,6.72
2018-01-18T11:53:55.127Z,6.85
2018-01-18T11:54:55.146Z,6.76
2018-01-18T11:55:55.164Z,6.76
2018-01-18T11:56:55.178Z,6.73
2018-01-18T11:57:55.201Z,6.75
2018-01-18T11:58:55.220Z,6.76
2018-01-18T11:59:55.238Z,6.67
2018-01-18T12:00:55.251Z,6.73
2018-01-18T12:01:55.270Z,6.70
2018-01-18T12:02:55.294Z,6.75
2018-01-18T12:03:55.307Z,6.58
2018-01-18T12:04:55.326Z,6.57
2018-01-18T12:05:55.351Z,6.58
2018-01-18T12:06:55.363Z,6.60
2018-01-18T12:07:55.392Z,6.65
2018-01-18T12:08:55.401Z,6.67
2018-01-18T12:09:55.424Z,6.62
2018-01-18T12:10:55.437Z,6.67
2018-01-18T12:11:55.463Z,6.61
2018-01-18T12:12:55.475Z,6.61
2018-01-18T12:13:55.494Z,6.54
2018-01-18T12:14:55.512Z,6.58
2018-01-18T12:15:55.537Z,6.58
2018-01-18T12:16:55.556Z,6.55
2018-01-18T12:17:55.576Z,6.57
2018-01-18T12:18:55.587Z,6.58
2018-01-18T12:19:55.613Z,6.54
2018-01-18T12:20:55.631Z,6.42
2018-01-18T12:21:55.643Z,6.52
2018-01-18T12:22:55.668Z,6.44
2018-01-18T12:23:55.682Z,6.51
2018-01-18T12:24:55.706Z,6.46
2018-01-18T12:25:55.717Z,6.43
2018-01-18T12:26:55.743Z,6.40
2018-01-18T12:27:55.756Z,6.34
2018-01-18T12:28:55.780Z,6.33
2018-01-18T12:29:55.795Z,6.34
2018-01-18T12:30:55.817Z,6.28
2018-01-18T12:31:55.831Z,6.37
2018-01-18T12:32:55.851Z,6.39
2018-01-18T12:33:55.870Z,6.39
2018-01-18T12:34:55.885Z,6.42
2018-01-18T12:35:55.904Z,6.65
2018-01-18T12:36:55.930Z,6.54
2018-01-18T12:37:55.941Z,6.44
2018-01-18T12:38:55.965Z,6.52
2018-01-18T12:39:55.984Z,6.54
2018-01-18T12:40:55.999Z,6.42
2018-01-18T12:41:56.017Z,6.46
2018-01-18T12:42:56.042Z,6.49
2018-01-18T12:43:56.058Z,6.46
2018-01-18T12:44:56.070Z,6.49
2018-01-18T12:45:56.088Z,6.43
2018-01-18T12:46:56.143Z,6.46
2018-01-18T12:47:56.132Z,6.57
2018-01-18T12:48:56.183Z,6.54
2018-01-18T12:49:56.163Z,6.55
2018-01-18T12:50:56.214Z,6.65
2018-01-18T12:51:56.261Z,6.54
2018-01-18T12:52:56.220Z,6.61
2018-01-18T12:53:56.238Z,6.62
2018-01-18T12:54:56.266Z,6.55
2018-01-18T12:55:56.281Z,6.55
2018-01-18T12:56:56.295Z,6.55
2018-01-18T12:57:56.312Z,6.52
2018-01-18T12:58:56.338Z,6.58
2018-01-18T12:59:56.358Z,6.36
2018-01-18T13:00:56.369Z,6.44
2018-01-18T13:01:56.389Z,6.42
2018-01-18T13:02:56.412Z,6.37
2018-01-18T13:03:56.436Z,6.31
2018-01-18T13:04:56.449Z,6.18
2018-01-18T13:05:56.462Z,6.36
2018-01-18T13:06:56.482Z,6.20
2018-01-18T13:07:56.506Z,6.20
2018-01-18T13:08:56.520Z,6.17
2018-01-18T13:09:56.544Z,6.13
2018-01-18T13:10:56.570Z,6.17
2018-01-18T13:11:56.584Z,6.03
2018-01-18T13:12:56.594Z,6.10
2018-01-18T13:13:56.617Z,6.00
2018-01-18T13:14:56.635Z,6.00
2018-01-18T13:15:56.655Z,5.89
2018-01-18T13:16:56.668Z,5.89
2018-01-18T13:17:56.691Z,5.99
2018-01-18T13:18:56.704Z,5.87